Time;durP1;ratioP1;P1;durP2;ratioP2;P2;SDS_P1;SDS_P2;PMS_P1;PMS_P2;Temp;Humidity;BMP_temperature;BMP_pressure;BME280_temperature;BME280_humidity;BME280_pressure;Samples;Min_cycle;Max_cycle;Signal;HPM_P1;HPM_P2
2022/10/11 00:00:12;;;;;;;;;;;6.10;99.90;;;;;;5086136;28;19924;-88
2022/10/11 00:02:38;;;;;;;;;;;6.10;99.90;;;;;;5102828;28;19924;-88
2022/10/11 00:05:03;;;;;;;;;;;6.10;99.90;;;;;;5098812;28;20441;-88
2022/10/11 00:07:29;;;;;;;;;;;6.10;99.90;;;;;;5119193;28;20025;-88
2022/10/11 00:09:54;;;;;;;;;;;6.00;99.90;;;;;;5083980;28;20334;-88
2022/10/11 00:12:20;;;;;;;;;;;6.00;99.90;;;;;;5087252;28;19923;-88
2022/10/11 00:14:46;;;;;;;;;;;6.00;99.90;;;;;;5116769;28;20693;-87
2022/10/11 00:17:11;;;;;;;;;;;6.00;99.90;;;;;;5071716;28;19935;-88
2022/10/11 00:19:37;;;;;;;;;;;5.90;99.90;;;;;;5078948;28;19924;-88
2022/10/11 00:22:02;;;;;;;;;;;6.00;99.90;;;;;;5097903;28;19930;-88
2022/10/11 00:24:28;;;;;;;;;;;5.90;99.90;;;;;;5119572;28;20333;-88
2022/10/11 00:26:53;;;;;;;;;;;5.90;99.90;;;;;;5087191;28;19935;-88
2022/10/11 00:29:19;;;;;;;;;;;5.90;99.90;;;;;;5080939;28;19932;-89
2022/10/11 00:31:45;;;;;;;;;;;5.80;99.90;;;;;;5094033;28;19943;-88
2022/10/11 00:34:11;;;;;;;;;;;5.80;99.90;;;;;;5079511;28;19924;-88
2022/10/11 00:36:36;;;;;;;;;;;5.80;99.90;;;;;;5090841;28;19936;-87
2022/10/11 00:39:02;;;;;;;;;;;5.80;99.90;;;;;;5079744;28;19924;-88
2022/10/11 00:41:28;;;;;;;;;;;5.80;99.90;;;;;;5104608;28;20279;-88
2022/10/11 00:44:09;;;;;;;;;;;5.80;99.90;;;;;;5085447;28;19935;-88
2022/10/11 00:46:35;;;;;;;;;;;5.80;99.90;;;;;;5120133;28;20314;-88
2022/10/11 00:49:03;;;;;;;;;;;5.70;99.90;;;;;;5085757;28;19923;-87
2022/10/11 00:51:34;;;;;;;;;;;5.70;99.90;;;;;;5103043;28;19939;-87
2022/10/11 00:54:00;;;;;;;;;;;5.70;99.90;;;;;;5094133;28;20383;-87
2022/10/11 00:56:30;;;;;;;;;;;5.70;99.90;;;;;;5096405;28;19935;-87
2022/10/11 00:58:56;;;;;;;;;;;5.70;99.90;;;;;;5110933;28;19927;-88
2022/10/11 01:01:21;;;;;;;;;;;5.70;99.90;;;;;;5092841;28;19932;-88
2022/10/11 01:03:47;;;;;;;;;;;5.70;99.90;;;;;;5095107;28;19924;-88
2022/10/11 01:06:12;;;;;;;;;;;5.70;99.90;;;;;;5090655;28;19969;-88
2022/10/11 01:08:38;;;;;;;;;;;5.70;99.90;;;;;;5079329;28;19927;-88
2022/10/11 01:11:04;;;;;;;;;;;5.60;99.90;;;;;;5096866;28;20489;-87
2022/10/11 01:13:39;;;;;;;;;;;5.60;99.90;;;;;;5077079;28;19928;-88
2022/10/11 01:16:24;;;;;;;;;;;5.60;99.90;;;;;;5108451;28;19939;-88
2022/10/11 01:18:58;;;;;;;;;;;6.10;99.90;;;;;;5113587;28;19924;-88
2022/10/11 01:21:33;;;;;;;;;;;5.50;99.90;;;;;;5094927;28;19924;-88
2022/10/11 01:24:06;;;;;;;;;;;5.50;99.90;;;;;;5094502;28;19959;-88
2022/10/11 01:26:52;;;;;;;;;;;5.50;99.90;;;;;;5097943;28;19928;-88
2022/10/11 01:29:37;;;;;;;;;;;5.50;99.90;;;;;;5097888;28;19949;-88
2022/10/11 01:32:07;;;;;;;;;;;5.40;99.90;;;;;;5104779;28;19999;-88
2022/10/11 01:34:46;;;;;;;;;;;5.40;99.90;;;;;;5095168;28;19963;-88
2022/10/11 01:37:16;;;;;;;;;;;5.40;99.90;;;;;;5095197;28;19923;-88
2022/10/11 01:39:45;;;;;;;;;;;5.40;99.90;;;;;;5092956;28;19928;-88
2022/10/11 01:42:12;;;;;;;;;;;5.40;99.90;;;;;;5099436;28;19993;-88
2022/10/11 01:44:38;;;;;;;;;;;5.30;99.90;;;;;;5082307;28;19924;-87
2022/10/11 01:47:04;;;;;;;;;;;5.30;99.90;;;;;;5094756;28;19979;-88
2022/10/11 01:49:30;;;;;;;;;;;5.30;99.90;;;;;;5096833;28;19939;-87
2022/10/11 01:51:58;;;;;;;;;;;5.30;99.90;;;;;;5095492;28;19959;-88
2022/10/11 01:54:30;;;;;;;;;;;5.30;99.90;;;;;;5096919;28;19928;-87
2022/10/11 01:56:58;;;;;;;;;;;5.30;99.90;;;;;;5098490;28;19970;-88
2022/10/11 01:59:52;;;;;;;;;;;5.20;99.90;;;;;;5101530;28;19928;-88
2022/10/11 02:02:50;;;;;;;;;;;5.20;99.90;;;;;;5098566;28;19924;-88
2022/10/11 02:05:28;;;;;;;;;;;5.30;99.90;;;;;;5059970;28;20412;-87
2022/10/11 02:08:03;;;;;;;;;;;5.30;99.90;;;;;;5093468;28;19924;-87
2022/10/11 02:10:34;;;;;;;;;;;5.30;99.90;;;;;;5100372;28;19923;-88
2022/10/11 02:13:00;;;;;;;;;;;5.30;99.90;;;;;;5097242;28;19923;-88
2022/10/11 02:15:28;;;;;;;;;;;5.30;99.90;;;;;;5094703;28;19939;-88
2022/10/11 02:17:56;;;;;;;;;;;6.50;99.90;;;;;;5099599;28;20058;-88
2022/10/11 02:20:23;;;;;;;;;;;5.20;99.90;;;;;;5101795;28;19959;-88
2022/10/11 02:22:51;;;;;;;;;;;5.30;99.90;;;;;;5100461;28;19931;-88
2022/10/11 02:25:20;;;;;;;;;;;5.20;99.90;;;;;;5101204;28;19924;-88
2022/10/11 02:27:47;;;;;;;;;;;5.20;99.90;;;;;;5093909;28;19964;-87
2022/10/11 02:30:13;;;;;;;;;;;5.10;99.90;;;;;;5099507;28;19924;-88
2022/10/11 02:32:40;;;;;;;;;;;5.10;99.90;;;;;;5085685;28;19938;-87
2022/10/11 02:35:07;;;;;;;;;;;5.10;99.90;;;;;;5115902;28;19923;-88
2022/10/11 02:37:40;;;;;;;;;;;5.10;99.90;;;;;;5100931;28;20282;-89
2022/10/11 02:40:05;;;;;;;;;;;5.10;99.90;;;;;;5099999;28;19935;-88
2022/10/11 02:42:36;;;;;;;;;;;5.10;99.90;;;;;;5101309;28;19923;-88
2022/10/11 02:45:09;;;;;;;;;;;5.10;99.90;;;;;;5112839;28;20023;-88
2022/10/11 02:47:35;;;;;;;;;;;5.10;99.90;;;;;;5114206;28;19932;-88
2022/10/11 02:50:02;;;;;;;;;;;5.10;99.90;;;;;;5083371;28;19949;-88
2022/10/11 02:52:27;;;;;;;;;;;5.00;99.90;;;;;;5097508;28;19923;-89
2022/10/11 02:54:53;;;;;;;;;;;5.00;99.90;;;;;;5081182;28;19997;-88
2022/10/11 02:57:18;;;;;;;;;;;5.10;99.90;;;;;;5083335;28;19923;-88
2022/10/11 02:59:44;;;;;;;;;;;5.00;99.90;;;;;;5083081;28;19931;-88
2022/10/11 03:02:10;;;;;;;;;;;4.90;99.90;;;;;;5082384;28;19924;-88
2022/10/11 03:04:35;;;;;;;;;;;4.90;99.90;;;;;;5086421;28;20314;-89
2022/10/11 03:07:01;;;;;;;;;;;4.90;99.90;;;;;;5084417;28;20293;-89
2022/10/11 03:09:26;;;;;;;;;;;4.90;99.90;;;;;;5099979;28;19927;-88
2022/10/11 03:11:52;;;;;;;;;;;4.90;99.90;;;;;;5080833;28;19924;-88
2022/10/11 03:14:18;;;;;;;;;;;4.90;99.90;;;;;;5077658;28;19923;-88
2022/10/11 03:16:43;;;;;;;;;;;4.90;99.90;;;;;;5099995;28;19924;-88
2022/10/11 03:19:09;;;;;;;;;;;4.90;99.90;;;;;;5093779;28;20406;-88
2022/10/11 03:21:35;;;;;;;;;;;4.90;99.90;;;;;;5081851;28;19926;-88
2022/10/11 03:24:01;;;;;;;;;;;4.90;99.90;;;;;;5100245;28;19963;-88
2022/10/11 03:26:26;;;;;;;;;;;4.80;99.90;;;;;;5083193;28;19967;-88
2022/10/11 03:28:52;;;;;;;;;;;4.80;99.90;;;;;;5074318;28;20296;-88
2022/10/11 03:31:17;;;;;;;;;;;4.80;99.90;;;;;;5098357;28;19987;-89
2022/10/11 03:33:43;;;;;;;;;;;4.90;99.90;;;;;;5079981;28;19939;-88
2022/10/11 03:36:09;;;;;;;;;;;4.90;99.90;;;;;;5092190;28;19924;-88
2022/10/11 03:38:35;;;;;;;;;;;4.80;99.90;;;;;;5082804;28;20248;-88
2022/10/11 03:41:00;;;;;;;;;;;4.80;99.90;;;;;;5087905;28;19924;-88
2022/10/11 03:43:26;;;;;;;;;;;4.90;99.90;;;;;;5078220;28;19928;-88
2022/10/11 03:45:51;;;;;;;;;;;4.80;99.90;;;;;;5079138;28;19928;-87
2022/10/11 03:48:17;;;;;;;;;;;4.80;99.90;;;;;;5083436;28;19924;-88
2022/10/11 03:50:42;;;;;;;;;;;4.80;99.90;;;;;;5082844;28;20389;-87
2022/10/11 03:53:08;;;;;;;;;;;4.80;99.90;;;;;;5099837;28;19946;-88
2022/10/11 03:55:36;;;;;;;;;;;4.80;99.90;;;;;;5083509;28;19967;-87
2022/10/11 03:58:01;;;;;;;;;;;4.80;99.90;;;;;;5100468;28;19924;-88
2022/10/11 04:00:27;;;;;;;;;;;4.80;99.90;;;;;;5075151;28;19962;-88
2022/10/11 04:02:53;;;;;;;;;;;4.90;99.90;;;;;;5080080;28;19969;-88
2022/10/11 04:05:18;;;;;;;;;;;5.00;99.90;;;;;;5080575;28;19992;-88
2022/10/11 04:07:44;;;;;;;;;;;4.90;99.90;;;;;;5087470;28;19958;-89
2022/10/11 04:10:09;;;;;;;;;;;4.90;99.90;;;;;;5086695;28;19924;-89
2022/10/11 04:12:36;;;;;;;;;;;4.90;99.90;;;;;;5087220;28;19991;-88
2022/10/11 04:15:01;;;;;;;;;;;5.00;99.90;;;;;;5096020;28;19924;-88
2022/10/11 04:17:27;;;;;;;;;;;5.00;99.90;;;;;;5081714;28;19974;-89
2022/10/11 04:19:52;;;;;;;;;;;5.00;99.90;;;;;;5086134;28;19947;-87
2022/10/11 04:22:18;;;;;;;;;;;5.00;99.90;;;;;;5085593;28;20427;-88
2022/10/11 04:24:44;;;;;;;;;;;5.00;99.90;;;;;;5087337;28;19932;-88
2022/10/11 04:27:09;;;;;;;;;;;5.10;99.90;;;;;;5102893;28;19923;-87
2022/10/11 04:29:35;;;;;;;;;;;5.10;99.90;;;;;;5083154;28;19935;-88
2022/10/11 04:32:01;;;;;;;;;;;5.10;99.90;;;;;;5119028;28;19969;-88
2022/10/11 04:34:26;;;;;;;;;;;5.10;99.90;;;;;;5081533;28;20069;-88
2022/10/11 04:36:52;;;;;;;;;;;5.10;99.90;;;;;;5085981;28;20005;-88
2022/10/11 04:39:17;;;;;;;;;;;4.90;99.90;;;;;;5080832;28;19924;-88
2022/10/11 04:41:43;;;;;;;;;;;5.10;99.90;;;;;;5086016;28;19928;-88
2022/10/11 04:44:08;;;;;;;;;;;5.10;99.90;;;;;;5096920;28;19931;-87
2022/10/11 04:46:34;;;;;;;;;;;5.10;99.90;;;;;;5102267;28;19934;-88
2022/10/11 04:49:00;;;;;;;;;;;5.10;99.90;;;;;;5086404;28;19976;-88
2022/10/11 04:51:26;;;;;;;;;;;5.10;99.90;;;;;;5078263;28;19999;-89
2022/10/11 04:53:51;;;;;;;;;;;5.00;99.90;;;;;;5097800;28;19984;-87
2022/10/11 04:56:17;;;;;;;;;;;5.00;99.90;;;;;;5082950;28;19923;-88
2022/10/11 04:58:44;;;;;;;;;;;5.00;99.90;;;;;;5091039;28;19962;-88
2022/10/11 05:01:10;;;;;;;;;;;5.00;99.90;;;;;;5097806;28;19938;-88
2022/10/11 05:03:36;;;;;;;;;;;5.00;99.90;;;;;;5102957;28;19923;-88
2022/10/11 05:06:02;;;;;;;;;;;5.00;99.90;;;;;;5102447;28;19932;-87
2022/10/11 05:08:28;;;;;;;;;;;5.00;99.90;;;;;;5103184;28;19946;-88
2022/10/11 05:11:01;;;;;;;;;;;4.90;99.90;;;;;;5096853;28;20300;-88
2022/10/11 05:13:27;;;;;;;;;;;4.90;99.90;;;;;;5118647;28;19928;-88
2022/10/11 05:15:52;;;;;;;;;;;4.90;99.90;;;;;;5100632;28;19927;-87
2022/10/11 05:18:18;;;;;;;;;;;4.90;99.90;;;;;;5080928;28;19928;-88
2022/10/11 05:20:44;;;;;;;;;;;4.90;99.90;;;;;;5102337;28;19927;-88
2022/10/11 05:23:10;;;;;;;;;;;4.90;99.90;;;;;;5100343;28;19979;-87
2022/10/11 05:25:35;;;;;;;;;;;4.90;99.90;;;;;;5101944;28;19924;-89
2022/10/11 05:28:01;;;;;;;;;;;4.90;99.90;;;;;;5102627;28;20005;-87
2022/10/11 05:30:26;;;;;;;;;;;4.90;99.90;;;;;;5076800;28;19989;-89
2022/10/11 05:32:52;;;;;;;;;;;4.90;99.90;;;;;;5084247;28;20002;-88
2022/10/11 05:35:18;;;;;;;;;;;4.90;99.90;;;;;;5099144;28;19980;-89
2022/10/11 05:37:43;;;;;;;;;;;5.00;99.90;;;;;;5083216;28;20310;-88
2022/10/11 05:40:09;;;;;;;;;;;5.00;99.90;;;;;;5094461;28;20018;-88
2022/10/11 05:42:35;;;;;;;;;;;5.00;99.90;;;;;;5099079;28;20378;-87
2022/10/11 05:45:01;;;;;;;;;;;5.20;99.90;;;;;;5082146;28;19931;-87
2022/10/11 05:47:27;;;;;;;;;;;5.10;99.90;;;;;;5097361;28;19927;-86
2022/10/11 05:49:52;;;;;;;;;;;5.10;99.90;;;;;;5101315;28;19954;-88
2022/10/11 05:52:20;;;;;;;;;;;5.10;99.90;;;;;;5087640;28;19932;-88
2022/10/11 05:54:49;;;;;;;;;;;5.10;99.90;;;;;;5079031;28;19924;-90
2022/10/11 05:57:15;;;;;;;;;;;5.10;99.90;;;;;;5098850;28;19927;-89
2022/10/11 05:59:43;;;;;;;;;;;5.10;99.90;;;;;;5101453;28;19965;-91
2022/10/11 06:02:12;;;;;;;;;;;5.10;99.90;;;;;;5097990;28;19923;-90
2022/10/11 06:04:38;;;;;;;;;;;5.10;99.90;;;;;;5096504;28;19924;-87
2022/10/11 06:07:04;;;;;;;;;;;5.10;99.90;;;;;;5097426;28;19930;-89
2022/10/11 06:09:30;;;;;;;;;;;5.10;99.90;;;;;;5096350;28;19931;-89
2022/10/11 06:11:56;;;;;;;;;;;5.20;99.90;;;;;;5082053;28;20062;-88
2022/10/11 06:14:22;;;;;;;;;;;5.20;99.90;;;;;;5093575;28;20384;-87
2022/10/11 06:16:47;;;;;;;;;;;5.20;99.90;;;;;;5093143;28;19932;-88
2022/10/11 06:19:13;;;;;;;;;;;5.20;99.90;;;;;;5094032;28;19924;-87
2022/10/11 06:21:39;;;;;;;;;;;5.20;99.90;;;;;;5109903;28;19971;-88
2022/10/11 06:24:05;;;;;;;;;;;5.30;99.90;;;;;;5079794;28;19928;-86
2022/10/11 06:26:31;;;;;;;;;;;5.30;99.90;;;;;;5096874;28;19924;-88
2022/10/11 06:28:57;;;;;;;;;;;5.30;99.90;;;;;;5094198;28;20299;-87
2022/10/11 06:31:23;;;;;;;;;;;5.40;99.90;;;;;;5091931;28;19924;-88
2022/10/11 06:33:49;;;;;;;;;;;5.40;99.90;;;;;;5098733;28;19997;-89
2022/10/11 06:36:15;;;;;;;;;;;5.40;99.90;;;;;;5090222;28;19927;-88
2022/10/11 06:38:41;;;;;;;;;;;5.40;99.90;;;;;;5096934;28;19939;-91
2022/10/11 06:41:10;;;;;;;;;;;5.50;99.90;;;;;;5095809;28;19960;-92
2022/10/11 06:43:36;;;;;;;;;;;5.50;99.90;;;;;;5098986;28;19930;-90
2022/10/11 06:46:13;;;;;;;;;;;5.50;99.90;;;;;;5091729;28;19928;-90
2022/10/11 06:48:40;;;;;;;;;;;5.50;99.90;;;;;;5098782;28;19991;-89
2022/10/11 06:51:05;;;;;;;;;;;5.50;99.90;;;;;;5095789;28;19949;-89
2022/10/11 06:53:31;;;;;;;;;;;5.60;99.90;;;;;;5099844;28;19923;-92
2022/10/11 06:56:03;;;;;;;;;;;5.70;99.90;;;;;;5106473;28;20019;-91
2022/10/11 06:58:29;;;;;;;;;;;5.70;99.90;;;;;;5097978;28;20014;-92
2022/10/11 07:00:58;;;;;;;;;;;5.80;99.90;;;;;;5098414;28;20048;-89
2022/10/11 07:03:23;;;;;;;;;;;5.80;99.90;;;;;;5096504;28;19935;-92
2022/10/11 07:05:49;;;;;;;;;;;5.80;99.90;;;;;;5073953;28;19928;-91
2022/10/11 07:08:15;;;;;;;;;;;5.90;99.90;;;;;;5076556;28;19923;-91
2022/10/11 07:10:40;;;;;;;;;;;6.00;99.90;;;;;;5080045;28;19963;-91
2022/10/11 07:13:06;;;;;;;;;;;6.00;99.90;;;;;;5080857;28;19935;-90
2022/10/11 07:15:35;;;;;;;;;;;6.10;99.90;;;;;;5079878;28;19924;-90
2022/10/11 07:18:00;;;;;;;;;;;6.20;99.90;;;;;;5090585;28;20041;-90
2022/10/11 07:20:26;;;;;;;;;;;6.30;99.90;;;;;;5079889;28;19989;-91
2022/10/11 07:22:51;;;;;;;;;;;6.40;99.90;;;;;;5079141;28;19928;-91
2022/10/11 07:25:17;;;;;;;;;;;6.50;99.90;;;;;;5072516;28;19995;-91
2022/10/11 07:27:43;;;;;;;;;;;6.60;99.90;;;;;;5081394;28;19923;-90
2022/10/11 07:30:08;;;;;;;;;;;6.70;99.90;;;;;;5113570;28;19927;-91
2022/10/11 07:32:34;;;;;;;;;;;6.80;99.90;;;;;;5089203;28;19928;-92
2022/10/11 07:35:00;;;;;;;;;;;6.80;99.90;;;;;;5099435;28;19924;-91
2022/10/11 07:37:25;;;;;;;;;;;6.90;99.90;;;;;;5100037;28;19930;-92
2022/10/11 07:39:51;;;;;;;;;;;6.90;99.90;;;;;;5083029;28;19931;-90
2022/10/11 07:42:16;;;;;;;;;;;7.00;99.90;;;;;;5122135;28;19969;-93
2022/10/11 07:44:42;;;;;;;;;;;7.00;99.90;;;;;;5103206;28;19979;-91
2022/10/11 07:47:07;;;;;;;;;;;7.10;99.90;;;;;;5088613;28;19923;-92
2022/10/11 07:49:33;;;;;;;;;;;7.20;99.90;;;;;;5088517;28;19924;-91
2022/10/11 07:51:59;;;;;;;;;;;7.30;99.90;;;;;;5107313;28;19923;-92
2022/10/11 07:54:24;;;;;;;;;;;7.40;99.90;;;;;;5089523;28;19932;-91
2022/10/11 07:56:50;;;;;;;;;;;7.50;99.90;;;;;;5105126;28;19923;-89
2022/10/11 07:59:15;;;;;;;;;;;7.70;99.90;;;;;;5105680;28;19930;-92
2022/10/11 08:01:41;;;;;;;;;;;7.80;99.90;;;;;;5119501;28;19924;-91
2022/10/11 08:04:06;;;;;;;;;;;7.90;99.90;;;;;;5104111;28;20729;-91
2022/10/11 08:06:32;;;;;;;;;;;7.90;99.90;;;;;;5084655;28;20317;-91
2022/10/11 08:08:59;;;;;;;;;;;8.00;99.90;;;;;;5103163;28;20454;-91
2022/10/11 08:11:27;;;;;;;;;;;8.10;99.90;;;;;;5103097;28;20363;-92
2022/10/11 08:13:53;;;;;;;;;;;8.20;99.90;;;;;;5122154;28;19924;-92
2022/10/11 08:16:19;;;;;;;;;;;8.20;99.90;;;;;;5082501;28;19924;-90
2022/10/11 08:18:44;;;;;;;;;;;8.30;99.90;;;;;;5102302;28;19934;-91
2022/10/11 08:21:11;;;;;;;;;;;8.50;99.90;;;;;;5083738;28;19928;-91
2022/10/11 08:23:37;;;;;;;;;;;8.60;99.90;;;;;;5100393;28;19928;-91
2022/10/11 08:26:03;;;;;;;;;;;8.70;99.90;;;;;;5104938;28;19931;-90
2022/10/11 08:28:29;;;;;;;;;;;8.80;99.90;;;;;;5104457;28;19923;-90
2022/10/11 08:30:55;;;;;;;;;;;8.90;99.90;;;;;;5121666;28;19950;-90
2022/10/11 08:33:21;;;;;;;;;;;9.00;99.90;;;;;;5102494;28;19923;-91
2022/10/11 08:35:47;;;;;;;;;;;9.10;99.90;;;;;;5099858;28;19947;-90
2022/10/11 08:38:13;;;;;;;;;;;9.10;99.90;;;;;;5103885;28;19923;-88
2022/10/11 08:40:54;;;;;;;;;;;9.20;99.90;;;;;;5097357;28;19924;-90
2022/10/11 08:43:28;;;;;;;;;;;9.30;99.90;;;;;;5121188;28;20407;-91
2022/10/11 08:45:56;;;;;;;;;;;9.40;99.90;;;;;;5100830;28;19932;-92
2022/10/11 08:48:27;;;;;;;;;;;9.60;99.90;;;;;;5097293;28;19931;-92
2022/10/11 08:50:55;;;;;;;;;;;9.60;99.90;;;;;;5104140;28;19998;-92
2022/10/11 08:53:25;;;;;;;;;;;9.70;99.90;;;;;;5102518;28;19924;-92
2022/10/11 08:55:53;;;;;;;;;;;9.80;99.90;;;;;;5103449;28;20157;-91
2022/10/11 08:58:24;;;;;;;;;;;9.90;99.90;;;;;;5101463;28;19924;-92
2022/10/11 09:00:54;;;;;;;;;;;10.00;99.90;;;;;;5120454;28;20008;-93
2022/10/11 09:03:40;;;;;;;;;;;10.10;99.90;;;;;;5106460;28;19931;-91
2022/10/11 09:06:05;;;;;;;;;;;10.20;99.90;;;;;;5101759;28;19928;-88
2022/10/11 09:08:31;;;;;;;;;;;10.30;99.90;;;;;;5123391;28;19924;-90
2022/10/11 09:11:00;;;;;;;;;;;10.30;99.90;;;;;;5120887;28;19924;-89
2022/10/11 09:13:41;;;;;;;;;;;10.50;99.90;;;;;;5120334;28;19930;-90
2022/10/11 09:16:09;;;;;;;;;;;10.60;99.90;;;;;;5121960;28;19928;-89
2022/10/11 09:18:55;;;;;;;;;;;10.80;99.90;;;;;;5122034;28;19931;-89
2022/10/11 09:21:50;;;;;;;;;;;10.90;99.90;;;;;;5098996;28;19946;-88
2022/10/11 09:24:35;;;;;;;;;;;11.00;99.90;;;;;;5109062;28;19927;-90
2022/10/11 09:27:10;;;;;;;;;;;11.10;99.90;;;;;;5097652;28;19934;-89
2022/10/11 09:29:46;;;;;;;;;;;11.10;99.90;;;;;;5101848;28;19935;-89
2022/10/11 09:32:14;;;;;;;;;;;11.50;99.90;;;;;;5095911;28;19924;-90
2022/10/11 09:34:39;;;;;;;;;;;11.60;99.90;;;;;;5100679;28;19934;-89
2022/10/11 09:37:32;;;;;;;;;;;11.60;99.90;;;;;;5117029;28;19924;-89
2022/10/11 09:40:06;;;;;;;;;;;11.70;99.90;;;;;;5110299;28;19967;-90
2022/10/11 09:42:31;;;;;;;;;;;11.70;99.90;;;;;;5099609;28;20081;-89
2022/10/11 09:44:58;;;;;;;;;;;11.70;99.90;;;;;;5117361;28;19959;-89
2022/10/11 09:47:28;;;;;;;;;;;11.90;99.90;;;;;;5096781;28;19928;-89
2022/10/11 09:49:57;;;;;;;;;;;12.10;99.90;;;;;;5096876;28;19924;-89
2022/10/11 09:52:23;;;;;;;;;;;12.10;99.90;;;;;;5094607;28;19931;-89
2022/10/11 09:54:50;;;;;;;;;;;12.10;99.90;;;;;;5101537;28;19974;-88
2022/10/11 09:57:39;;;;;;;;;;;12.20;99.90;;;;;;5096096;28;19924;-89
2022/10/11 10:00:10;;;;;;;;;;;12.30;99.90;;;;;;5094110;28;19978;-89
2022/10/11 10:02:45;;;;;;;;;;;12.50;99.90;;;;;;5097767;28;19924;-88
2022/10/11 10:05:13;;;;;;;;;;;12.60;99.90;;;;;;5111336;28;20645;-89
2022/10/11 10:07:39;;;;;;;;;;;12.70;99.90;;;;;;5107339;28;19931;-89
2022/10/11 10:10:24;;;;;;;;;;;12.80;99.90;;;;;;5116783;28;19969;-89
2022/10/11 10:12:54;;;;;;;;;;;12.80;99.90;;;;;;5100871;28;20352;-90
2022/10/11 10:15:20;;;;;;;;;;;12.80;99.90;;;;;;5115601;28;19924;-88
2022/10/11 10:17:49;;;;;;;;;;;12.80;99.90;;;;;;5082872;28;19962;-88
2022/10/11 10:20:23;;;;;;;;;;;12.90;99.90;;;;;;5083303;28;20340;-87
2022/10/11 10:22:48;;;;;;;;;;;12.90;99.90;;;;;;5112276;28;19959;-86
2022/10/11 10:25:23;;;;;;;;;;;13.00;99.90;;;;;;5081931;28;19939;-88
2022/10/11 10:27:59;;;;;;;;;;;13.10;99.90;;;;;;5093536;28;19928;-86
2022/10/11 10:30:25;;;;;;;;;;;13.20;99.90;;;;;;5095589;28;20372;-86
2022/10/11 10:33:05;;;;;;;;;;;13.40;99.90;;;;;;5114083;28;19923;-86
2022/10/11 10:35:45;;;;;;;;;;;13.50;99.90;;;;;;5098385;28;19930;-91
2022/10/11 10:38:15;;;;;;;;;;;13.60;99.90;;;;;;5098015;28;20010;-91
2022/10/11 10:40:52;;;;;;;;;;;13.60;99.90;;;;;;5117830;28;19924;-92
2022/10/11 10:43:19;;;;;;;;;;;13.70;99.90;;;;;;5101331;28;19987;-91
2022/10/11 10:46:03;;;;;;;;;;;13.80;99.90;;;;;;5092434;28;19931;-91
2022/10/11 10:48:29;;;;;;;;;;;13.90;99.90;;;;;;5094736;28;19969;-92
2022/10/11 10:50:57;;;;;;;;;;;14.00;99.90;;;;;;5094245;28;19924;-91
2022/10/11 10:53:26;;;;;;;;;;;14.00;99.90;;;;;;5101398;28;19924;-93
2022/10/11 10:55:58;;;;;;;;;;;14.10;99.90;;;;;;5102434;28;19927;-88
2022/10/11 10:58:33;;;;;;;;;;;14.00;99.90;;;;;;5101004;28;19928;-90
2022/10/11 11:01:01;;;;;;;;;;;14.00;99.90;;;;;;5095133;28;19924;-90
2022/10/11 11:03:33;;;;;;;;;;;14.10;99.90;;;;;;5102131;28;19924;-89
2022/10/11 11:06:06;;;;;;;;;;;14.30;99.90;;;;;;5100237;28;19924;-90
2022/10/11 11:08:32;;;;;;;;;;;14.50;99.90;;;;;;5102849;28;19935;-90
2022/10/11 11:10:57;;;;;;;;;;;14.60;99.90;;;;;;5117907;28;20367;-90
2022/10/11 11:13:46;;;;;;;;;;;14.80;99.90;;;;;;5105896;28;19924;-90
2022/10/11 11:16:14;;;;;;;;;;;14.80;99.90;;;;;;5104682;28;19971;-89
2022/10/11 11:18:52;;;;;;;;;;;14.90;99.90;;;;;;5104584;28;19930;-91
2022/10/11 11:21:27;;;;;;;;;;;14.80;99.90;;;;;;5099544;28;19950;-89
2022/10/11 11:23:53;;;;;;;;;;;14.70;99.90;;;;;;5100628;28;19928;-90
2022/10/11 11:26:18;;;;;;;;;;;14.60;99.90;;;;;;5106368;28;19949;-91
2022/10/11 11:29:03;;;;;;;;;;;14.50;99.90;;;;;;5106046;28;19963;-90
2022/10/11 11:31:47;;;;;;;;;;;14.40;99.90;;;;;;5103889;28;19945;-90
2022/10/11 11:34:27;;;;;;;;;;;14.30;99.90;;;;;;5102839;28;19943;-88
2022/10/11 11:37:11;;;;;;;;;;;14.20;99.90;;;;;;5112908;28;19946;-87
2022/10/11 11:39:56;;;;;;;;;;;14.10;99.90;;;;;;5118476;28;19984;-88
2022/10/11 11:42:22;;;;;;;;;;;14.00;99.90;;;;;;5101657;28;19931;-88
2022/10/11 11:44:48;;;;;;;;;;;13.90;99.90;;;;;;5098336;28;19923;-88
2022/10/11 11:47:25;;;;;;;;;;;13.80;99.90;;;;;;5120902;28;19928;-88
2022/10/11 11:50:03;;;;;;;;;;;13.70;99.90;;;;;;5121850;28;19931;-87
2022/10/11 11:52:31;;;;;;;;;;;13.70;99.90;;;;;;5105554;28;19930;-88
2022/10/11 11:54:56;;;;;;;;;;;13.60;99.90;;;;;;5102099;28;19955;-88
2022/10/11 11:57:48;;;;;;;;;;;13.50;99.90;;;;;;5104018;28;19924;-88
2022/10/11 12:00:17;;;;;;;;;;;13.50;99.90;;;;;;5118157;28;20440;-88
2022/10/11 12:02:46;;;;;;;;;;;13.50;99.90;;;;;;5103860;28;20026;-88
2022/10/11 12:05:13;;;;;;;;;;;13.40;99.90;;;;;;5101152;28;19924;-88
2022/10/11 12:07:50;;;;;;;;;;;13.40;99.90;;;;;;5104412;28;19935;-88
2022/10/11 12:10:22;;;;;;;;;;;13.40;99.90;;;;;;5104432;28;19946;-88
2022/10/11 12:12:48;;;;;;;;;;;13.30;99.90;;;;;;5103007;28;19935;-88
2022/10/11 12:15:19;;;;;;;;;;;13.30;99.90;;;;;;5091084;28;19927;-89
2022/10/11 12:17:58;;;;;;;;;;;13.30;99.90;;;;;;5119506;28;20290;-88
2022/10/11 12:20:28;;;;;;;;;;;13.40;99.90;;;;;;5121803;28;19942;-89
2022/10/11 12:22:54;;;;;;;;;;;13.40;99.90;;;;;;5097390;28;19924;-90
2022/10/11 12:25:26;;;;;;;;;;;13.40;99.90;;;;;;5104093;28;20466;-90
2022/10/11 12:27:52;;;;;;;;;;;13.40;99.90;;;;;;5104168;28;19946;-88
2022/10/11 12:30:37;;;;;;;;;;;13.50;99.90;;;;;;5121825;28;19946;-88
2022/10/11 12:33:12;;;;;;;;;;;13.50;99.90;;;;;;5121112;28;19931;-88
2022/10/11 12:35:41;;;;;;;;;;;13.60;99.90;;;;;;5103784;28;19939;-89
2022/10/11 12:38:18;;;;;;;;;;;13.60;99.90;;;;;;5104341;28;20023;-88
2022/10/11 12:40:46;;;;;;;;;;;13.70;99.90;;;;;;5101188;28;19934;-88
2022/10/11 12:43:14;;;;;;;;;;;14.00;99.90;;;;;;5105046;28;19931;-88
2022/10/11 12:45:46;;;;;;;;;;;14.20;99.90;;;;;;5103133;28;19991;-87
2022/10/11 12:48:24;;;;;;;;;;;14.20;99.90;;;;;;5121616;28;19928;-88
2022/10/11 12:50:53;;;;;;;;;;;14.20;99.90;;;;;;5103969;28;19924;-88
2022/10/11 12:53:29;;;;;;;;;;;14.10;99.90;;;;;;5100776;28;19959;-86
2022/10/11 12:56:06;;;;;;;;;;;14.10;99.90;;;;;;5121635;28;19928;-88
2022/10/11 12:58:40;;;;;;;;;;;14.10;99.90;;;;;;5104819;28;19930;-87
2022/10/11 13:01:05;;;;;;;;;;;14.30;99.90;;;;;;5101905;28;19927;-87
2022/10/11 13:03:49;;;;;;;;;;;14.40;99.90;;;;;;5102740;28;19923;-87
2022/10/11 13:06:29;;;;;;;;;;;14.60;99.90;;;;;;5113949;28;19927;-87
2022/10/11 13:08:58;;;;;;;;;;;14.80;99.90;;;;;;5114083;28;19943;-88
2022/10/11 13:11:28;;;;;;;;;;;15.10;99.90;;;;;;5100252;28;19928;-88
2022/10/11 13:13:55;;;;;;;;;;;15.20;99.90;;;;;;5098533;28;20047;-89
2022/10/11 13:16:23;;;;;;;;;;;15.30;99.90;;;;;;5098038;28;19949;-88
2022/10/11 13:18:52;;;;;;;;;;;15.60;99.90;;;;;;5104920;28;20014;-87
2022/10/11 13:21:23;;;;;;;;;;;15.80;99.90;;;;;;5104747;28;20816;-89
2022/10/11 13:23:48;;;;;;;;;;;15.90;99.90;;;;;;5103700;28;19923;-88
2022/10/11 13:26:14;;;;;;;;;;;15.90;99.90;;;;;;5088439;28;19928;-89
2022/10/11 13:28:40;;;;;;;;;;;15.90;99.90;;;;;;5102867;28;19979;-87
2022/10/11 13:31:07;;;;;;;;;;;15.90;99.90;;;;;;5102174;28;19934;-89
2022/10/11 13:33:38;;;;;;;;;;;15.90;99.90;;;;;;5103760;28;19967;-88
2022/10/11 13:36:05;;;;;;;;;;;15.90;99.90;;;;;;5101075;28;20470;-88
2022/10/11 13:38:32;;;;;;;;;;;15.80;99.90;;;;;;5104232;28;19924;-89
2022/10/11 13:40:59;;;;;;;;;;;15.60;99.90;;;;;;5102480;28;19924;-89
2022/10/11 13:43:26;;;;;;;;;;;15.50;99.90;;;;;;5095451;28;19928;-89
2022/10/11 13:45:53;;;;;;;;;;;15.60;99.90;;;;;;5101616;28;19938;-88
2022/10/11 13:48:18;;;;;;;;;;;15.60;99.90;;;;;;5120180;28;19928;-88
2022/10/11 13:50:51;;;;;;;;;;;15.60;99.90;;;;;;5103614;28;19969;-88
2022/10/11 13:53:16;;;;;;;;;;;15.50;99.90;;;;;;5098109;28;19974;-89
2022/10/11 13:55:45;;;;;;;;;;;15.40;99.90;;;;;;5103170;28;19928;-88
2022/10/11 13:58:15;;;;;;;;;;;15.20;99.90;;;;;;5102613;28;19973;-89
2022/10/11 14:00:50;;;;;;;;;;;15.10;99.90;;;;;;5102534;28;19959;-88
2022/10/11 14:03:18;;;;;;;;;;;15.10;99.90;;;;;;5096326;28;19924;-87
2022/10/11 14:05:55;;;;;;;;;;;15.10;99.90;;;;;;5099636;28;19934;-88
2022/10/11 14:08:33;;;;;;;;;;;15.20;99.90;;;;;;5103683;28;19923;-89
2022/10/11 14:10:58;;;;;;;;;;;15.40;99.90;;;;;;5102100;28;19968;-90
2022/10/11 14:13:24;;;;;;;;;;;15.50;99.90;;;;;;5085660;28;19931;-91
2022/10/11 14:16:07;;;;;;;;;;;15.50;99.90;;;;;;5099444;28;20317;-87
2022/10/11 14:18:35;;;;;;;;;;;15.50;99.90;;;;;;5099700;28;19923;-92
2022/10/11 14:21:20;;;;;;;;;;;15.60;99.90;;;;;;5100694;28;20525;-91
2022/10/11 14:23:46;;;;;;;;;;;15.60;99.90;;;;;;5099427;28;19924;-92
2022/10/11 14:26:12;;;;;;;;;;;15.60;99.90;;;;;;5102855;28;19928;-90
2022/10/11 14:28:39;;;;;;;;;;;15.60;99.90;;;;;;5102587;28;19944;-91
2022/10/11 14:31:04;;;;;;;;;;;15.60;99.90;;;;;;5101258;28;20023;-90
2022/10/11 14:33:30;;;;;;;;;;;15.50;99.90;;;;;;5085754;28;19923;-90
2022/10/11 14:35:55;;;;;;;;;;;15.30;99.90;;;;;;5082121;28;19945;-91